Kalaupapa, HI (96742)

1:56 PM HST on July 02, 2015 (GMT -1000)
Molokai | | Change Station
CLOSE
Current Station
Airport
Location: Molokai,
Elevation: 449 ft
Nearby Weather Stations

Elev 449 ft 21.15 °N, 157.10 °W | Updated 2 minutes ago

Scattered Clouds
Scattered Clouds
83 °F
Feels Like 88 °F
N
9
Wind Variable Wind from NE

Today
High -- | Low -- °F
--% Chance of Precip.
Yesterday
High -- | Low -- °F
Precip. -- in
5:50 AM 7:13 PM
Full, 99% visible
Pressure 29.91 in
Visibility 10.0 miles
Clouds Scattered Clouds 2800 ft
Heat Index 88 °F
Dew Point 71 °F
Humidity 67%
Rainfall 0.00 in
Snow Depth Not available.
UV 9 out of 12
Pollen Not available.
Air Quality Not available.
Flu Activity Not available.
METAR PHMK 022354Z 05008KT 10SM SCT028 28/22 A2991 RMK AO2 SLP129 T02830217 10317 20272 58009

More Conditions Fewer Conditions

Pressure 29.91 in
Visibility 10.0 miles
Clouds Scattered Clouds 2800 ft
Heat Index 88 °F
Dew Point 71 °F
Humidity 67%
Rainfall 0.00 in
Snow Depth Not available.
UV 9 out of 12
Pollen Not available.
Air Quality Not available.
Flu Activity Not available.
METAR PHMK 022354Z 05008KT 10SM SCT028 28/22 A2991 RMK AO2 SLP129 T02830217 10317 20272 58009

More Conditions Fewer Conditions

10-Day Weather Forecast

×

Almanac

Astronomy

Jul. 02, 2015 Rise Set
Actual Time
Civil Twilight
Nautical Twilight
Astronomical Twilight
Moon
Length of Visible Light
Length of Day
Tomorrow will be .
, % of the Moon is Illuminated

Today's Extremes

State Highs State Lows

Community

WunderPhotos

Upload Photos

1,834,569 photos uploaded!

WunderBlogs® & News

Nearby

Air Quality

  Air Quality AQ Index Pollutant
Not available.

Snow Depth

Station Depth Elevation

Earthquake Activity

City Distance Mag. Time & Date
Minimum magnitude displayed is 2.5.

Coastal Water Temperatures

Place Temperature

Stations

Nearby Weather Stations

Station Location Temp. Windchill Dew Point Humidity Wind Precip. Elev Updated Type